createdAt,value
2023-07-31T00:00:15.924Z,5.35
2023-07-31T00:02:43.395Z,7.70
2023-07-31T00:05:11.010Z,6.82
2023-07-31T00:07:37.889Z,7.28
2023-07-31T00:10:05.149Z,5.38
2023-07-31T00:12:32.078Z,7.03
2023-07-31T00:14:58.939Z,9.57
2023-07-31T00:17:25.868Z,7.65
2023-07-31T00:19:52.806Z,8.07
2023-07-31T00:22:19.693Z,7.72
2023-07-31T00:24:46.623Z,7.82
2023-07-31T00:27:13.541Z,6.97
2023-07-31T00:29:40.560Z,8.68
2023-07-31T00:32:08.181Z,7.72
2023-07-31T00:34:35.558Z,8.82
2023-07-31T00:37:03.895Z,7.15
2023-07-31T00:39:32.136Z,7.32
2023-07-31T00:42:00.684Z,9.38
2023-07-31T00:44:27.855Z,8.23
2023-07-31T00:46:57.007Z,9.13
2023-07-31T00:49:24.608Z,6.25
2023-07-31T00:51:51.675Z,8.85
2023-07-31T00:54:19.140Z,8.93
2023-07-31T00:56:49.756Z,9.70
2023-07-31T00:59:16.679Z,8.90
2023-07-31T01:01:43.595Z,9.45
2023-07-31T01:04:10.493Z,6.68
2023-07-31T01:06:54.286Z,11.50
2023-07-31T01:09:35.193Z,9.32
2023-07-31T01:12:05.052Z,10.20
2023-07-31T01:14:32.016Z,9.50
2023-07-31T01:16:59.143Z,7.70
2023-07-31T01:19:31.702Z,8.30
2023-07-31T01:22:30.988Z,9.32
2023-07-31T01:25:53.518Z,8.10
2023-07-31T01:28:55.115Z,8.60
2023-07-31T01:31:26.156Z,8.20
2023-07-31T01:33:57.753Z,9.73
2023-07-31T01:38:51.817Z,14.75
2023-07-31T01:41:20.002Z,8.05
2023-07-31T01:43:47.735Z,8.77
2023-07-31T01:46:14.779Z,9.60
2023-07-31T01:48:41.819Z,9.35
2023-07-31T01:51:08.774Z,9.68
2023-07-31T01:53:36.895Z,9.75
2023-07-31T01:56:03.921Z,10.02
2023-07-31T01:58:31.387Z,9.18
2023-07-31T02:00:58.277Z,10.15
2023-07-31T02:03:25.236Z,7.57
2023-07-31T02:05:55.956Z,12.00
2023-07-31T02:08:22.859Z,7.82
2023-07-31T02:10:49.778Z,11.07
2023-07-31T02:13:16.706Z,8.32
2023-07-31T02:15:43.734Z,7.45
2023-07-31T02:18:11.524Z,9.25
2023-07-31T02:20:38.424Z,7.72
2023-07-31T02:23:05.376Z,10.20
2023-07-31T02:25:32.282Z,11.38
2023-07-31T02:27:59.244Z,9.27
2023-07-31T02:30:26.519Z,10.32
2023-07-31T02:32:53.428Z,8.98
2023-07-31T02:35:20.383Z,7.85
2023-07-31T02:37:47.279Z,9.90
2023-07-31T02:40:14.576Z,8.55
2023-07-31T02:42:41.514Z,8.10
2023-07-31T02:45:09.258Z,11.05
2023-07-31T02:47:36.332Z,11.88
2023-07-31T02:50:04.838Z,8.32
2023-07-31T02:52:31.962Z,9.00
2023-07-31T02:54:59.401Z,9.15
2023-07-31T02:57:26.347Z,9.98
2023-07-31T02:59:53.332Z,10.35
2023-07-31T03:02:20.632Z,8.07
2023-07-31T03:04:47.630Z,9.00
2023-07-31T03:07:15.341Z,6.60
2023-07-31T03:09:42.266Z,8.32
2023-07-31T03:12:09.745Z,7.82
2023-07-31T03:14:37.202Z,10.77
2023-07-31T03:17:04.487Z,7.20
2023-07-31T03:19:33.246Z,10.40
2023-07-31T03:22:01.056Z,10.18
2023-07-31T03:24:30.452Z,9.48
2023-07-31T03:26:57.564Z,10.95
2023-07-31T03:29:24.954Z,10.43
2023-07-31T03:31:53.348Z,11.05
2023-07-31T03:34:20.313Z,8.73
2023-07-31T03:36:47.354Z,11.23
2023-07-31T03:39:14.274Z,9.18
2023-07-31T03:41:41.150Z,10.30
2023-07-31T03:44:08.801Z,9.65
2023-07-31T03:46:37.325Z,12.18
2023-07-31T03:49:04.695Z,10.23
2023-07-31T03:51:31.699Z,8.52
2023-07-31T03:53:58.647Z,9.05
2023-07-31T03:56:25.523Z,11.35
2023-07-31T03:58:52.382Z,9.82
2023-07-31T04:01:22.494Z,9.82
2023-07-31T04:03:49.456Z,7.70
2023-07-31T04:06:19.137Z,8.77
2023-07-31T04:08:46.320Z,7.63
2023-07-31T04:11:13.620Z,10.98
2023-07-31T04:13:40.669Z,9.90
2023-07-31T04:16:07.544Z,9.27
2023-07-31T04:18:34.542Z,8.45
2023-07-31T04:21:02.399Z,9.70
2023-07-31T04:23:29.790Z,10.68
2023-07-31T04:25:57.208Z,8.13
2023-07-31T04:28:24.372Z,9.00
2023-07-31T04:30:51.392Z,7.78
2023-07-31T04:33:18.348Z,10.27
2023-07-31T04:35:53.601Z,7.57
2023-07-31T04:38:22.071Z,8.75
2023-07-31T04:40:49.938Z,9.45
2023-07-31T04:43:16.894Z,9.50
2023-07-31T04:45:48.882Z,10.15
2023-07-31T04:48:16.123Z,9.48
2023-07-31T04:50:43.435Z,7.45
2023-07-31T04:53:10.362Z,7.13
2023-07-31T04:55:37.248Z,8.55
2023-07-31T04:58:04.216Z,9.95
2023-07-31T05:00:31.193Z,8.13
2023-07-31T05:02:58.231Z,7.18
2023-07-31T05:05:25.272Z,9.02
2023-07-31T05:07:52.132Z,8.07
2023-07-31T05:10:19.028Z,7.40
2023-07-31T05:12:45.957Z,9.07
2023-07-31T05:15:12.907Z,10.10
2023-07-31T05:17:39.979Z,8.98
2023-07-31T05:20:08.085Z,9.05
2023-07-31T05:22:35.020Z,10.10
2023-07-31T05:25:02.028Z,8.88
2023-07-31T05:27:29.023Z,8.15
2023-07-31T05:29:55.920Z,9.93
2023-07-31T05:32:23.481Z,8.82
2023-07-31T05:34:53.494Z,9.30
2023-07-31T05:37:21.229Z,12.40
2023-07-31T05:39:48.061Z,8.13
2023-07-31T05:42:15.148Z,9.00
2023-07-31T05:44:42.018Z,8.57
2023-07-31T05:47:08.920Z,7.75
2023-07-31T05:49:35.878Z,7.63
2023-07-31T05:52:02.882Z,8.75
2023-07-31T05:54:29.743Z,8.05
2023-07-31T05:56:56.592Z,8.07
2023-07-31T05:59:23.505Z,8.80
2023-07-31T06:01:50.590Z,8.40
2023-07-31T06:04:17.606Z,7.25
2023-07-31T06:06:44.566Z,8.30
2023-07-31T06:09:11.478Z,6.85
2023-07-31T06:11:38.447Z,8.90
2023-07-31T06:14:05.345Z,9.50
2023-07-31T06:16:32.442Z,10.10
2023-07-31T06:18:59.340Z,10.52
2023-07-31T06:21:26.337Z,9.90
2023-07-31T06:23:53.278Z,8.35
2023-07-31T06:26:20.380Z,11.07
2023-07-31T06:28:47.619Z,10.50
2023-07-31T06:31:14.572Z,9.23
2023-07-31T06:33:41.567Z,11.82
2023-07-31T06:36:08.772Z,8.43
2023-07-31T06:38:35.684Z,8.50
2023-07-31T06:41:02.561Z,9.32
2023-07-31T06:43:29.788Z,9.93
2023-07-31T06:45:56.861Z,9.93
2023-07-31T06:48:23.786Z,7.07
2023-07-31T06:50:50.723Z,14.35
2023-07-31T06:53:17.632Z,8.52
2023-07-31T06:55:44.631Z,6.70
2023-07-31T06:58:11.532Z,9.75
2023-07-31T07:00:38.475Z,11.70
2023-07-31T07:03:05.448Z,8.60
2023-07-31T07:05:32.451Z,7.53
2023-07-31T07:07:59.367Z,7.28
2023-07-31T07:10:26.297Z,10.68
2023-07-31T07:12:56.481Z,7.00
2023-07-31T07:15:23.497Z,6.90
2023-07-31T07:17:50.475Z,6.38
2023-07-31T07:20:17.586Z,13.63
2023-07-31T07:22:44.566Z,6.00
2023-07-31T07:25:11.702Z,7.60
2023-07-31T07:27:38.552Z,7.57
2023-07-31T07:30:06.390Z,6.18
2023-07-31T07:32:33.341Z,13.45
2023-07-31T07:35:00.404Z,6.55
2023-07-31T07:37:27.280Z,6.22
2023-07-31T07:39:54.135Z,7.15
2023-07-31T07:42:20.976Z,6.30
2023-07-31T07:44:47.874Z,7.78
2023-07-31T07:47:15.029Z,5.75
2023-07-31T07:49:42.010Z,4.25
2023-07-31T07:52:08.983Z,5.28
2023-07-31T07:54:35.957Z,4.70
2023-07-31T07:57:02.951Z,5.97
2023-07-31T07:59:29.880Z,6.47
2023-07-31T08:01:56.781Z,5.85
2023-07-31T08:04:23.627Z,5.63
2023-07-31T08:06:50.579Z,4.82
2023-07-31T08:09:17.541Z,5.10
2023-07-31T08:11:44.465Z,5.70
2023-07-31T08:14:11.386Z,5.45
2023-07-31T08:16:38.690Z,5.38
2023-07-31T08:19:06.129Z,5.25
2023-07-31T08:21:33.403Z,4.22
2023-07-31T08:24:00.328Z,5.85
2023-07-31T08:26:27.657Z,4.47
2023-07-31T08:28:54.563Z,6.07
2023-07-31T08:31:21.539Z,4.43
2023-07-31T08:33:48.447Z,4.25
2023-07-31T08:36:15.321Z,4.63
2023-07-31T08:38:42.268Z,5.60
2023-07-31T08:41:09.143Z,6.20
2023-07-31T08:43:38.988Z,5.93
2023-07-31T08:46:07.049Z,6.13
2023-07-31T08:48:35.079Z,4.70
2023-07-31T08:51:02.273Z,4.70
2023-07-31T08:53:29.220Z,4.85
2023-07-31T08:55:59.573Z,5.65
2023-07-31T08:58:32.542Z,3.47
2023-07-31T09:01:05.413Z,5.05
2023-07-31T09:03:37.156Z,4.40
2023-07-31T09:06:07.264Z,4.18
2023-07-31T09:08:34.795Z,3.83
2023-07-31T09:11:06.176Z,4.45
2023-07-31T09:13:34.094Z,5.18
2023-07-31T09:16:01.193Z,4.70
2023-07-31T09:18:28.106Z,3.40
2023-07-31T09:21:06.441Z,4.72
2023-07-31T09:24:02.531Z,3.65
2023-07-31T09:26:36.487Z,5.72
2023-07-31T09:29:08.897Z,4.63
2023-07-31T09:31:42.609Z,4.95
2023-07-31T09:34:10.934Z,5.50
2023-07-31T09:36:55.864Z,4.95
2023-07-31T09:39:22.825Z,4.72
2023-07-31T09:41:56.505Z,4.47
2023-07-31T09:44:40.944Z,4.63
2023-07-31T09:47:08.079Z,4.47
2023-07-31T09:49:35.006Z,4.30
2023-07-31T09:52:02.244Z,5.32
2023-07-31T09:54:29.284Z,5.65
2023-07-31T09:57:00.108Z,3.83
2023-07-31T09:59:27.165Z,5.30
2023-07-31T10:01:57.478Z,4.78
2023-07-31T10:04:28.978Z,4.90
2023-07-31T10:09:28.292Z,4.78
2023-07-31T10:12:01.626Z,5.78
2023-07-31T10:14:30.098Z,5.75
2023-07-31T10:16:59.364Z,6.40
2023-07-31T10:19:29.177Z,6.97
2023-07-31T10:21:58.244Z,7.20
2023-07-31T10:24:26.283Z,6.43
2023-07-31T10:26:54.502Z,6.80
2023-07-31T10:29:23.622Z,4.95
2023-07-31T10:31:52.904Z,6.97
2023-07-31T10:34:19.993Z,7.28
2023-07-31T10:36:46.941Z,8.13
2023-07-31T10:39:38.017Z,6.13
2023-07-31T10:42:15.162Z,5.72
2023-07-31T10:44:47.905Z,7.03
2023-07-31T10:47:18.907Z,6.47
2023-07-31T10:49:47.990Z,5.53
2023-07-31T10:52:20.236Z,6.03
2023-07-31T10:54:47.106Z,5.93
2023-07-31T10:57:23.833Z,5.97
2023-07-31T10:59:51.779Z,7.55
2023-07-31T11:02:31.432Z,7.40
2023-07-31T11:05:09.980Z,5.82
2023-07-31T11:07:50.601Z,6.50
2023-07-31T11:10:19.902Z,7.65
2023-07-31T11:12:48.128Z,8.07
2023-07-31T11:15:15.073Z,5.75
2023-07-31T11:17:42.582Z,6.72
2023-07-31T11:20:10.253Z,4.53
2023-07-31T11:22:37.367Z,6.00
2023-07-31T11:25:05.436Z,5.75
2023-07-31T11:27:32.433Z,7.75
2023-07-31T11:30:04.336Z,4.85
2023-07-31T11:32:31.330Z,5.28
2023-07-31T11:34:58.460Z,5.95
2023-07-31T11:37:25.380Z,5.72
2023-07-31T11:40:02.577Z,5.35
2023-07-31T11:42:29.545Z,6.65
2023-07-31T11:44:56.395Z,5.38
2023-07-31T11:47:23.476Z,4.82
2023-07-31T11:49:50.619Z,4.93
2023-07-31T11:52:21.172Z,6.00
2023-07-31T11:54:49.091Z,5.25
2023-07-31T11:57:17.332Z,5.05
2023-07-31T11:59:44.641Z,7.32
2023-07-31T12:02:11.839Z,4.90
2023-07-31T12:04:39.581Z,10.65
2023-07-31T12:07:06.982Z,7.13
2023-07-31T12:09:33.956Z,6.05
2023-07-31T12:12:01.142Z,6.93
2023-07-31T12:14:32.249Z,5.03
2023-07-31T12:17:04.806Z,5.35
2023-07-31T12:19:32.930Z,5.13
2023-07-31T12:22:03.333Z,4.82
2023-07-31T12:24:30.308Z,4.70
2023-07-31T12:26:57.240Z,4.95
2023-07-31T12:29:24.181Z,5.45
2023-07-31T12:31:51.111Z,5.07
2023-07-31T12:34:21.857Z,4.75
2023-07-31T12:36:51.891Z,4.97
2023-07-31T12:39:18.867Z,4.22
2023-07-31T12:41:45.814Z,4.00
2023-07-31T12:44:12.736Z,7.85
2023-07-31T12:46:40.018Z,5.25
2023-07-31T12:49:07.301Z,5.30
2023-07-31T12:51:34.183Z,5.15
2023-07-31T12:54:01.026Z,4.80
2023-07-31T12:56:27.917Z,4.30
2023-07-31T12:58:54.793Z,5.82
2023-07-31T13:01:21.743Z,4.60
2023-07-31T13:03:49.056Z,4.55
2023-07-31T13:06:16.124Z,4.85
2023-07-31T13:08:43.036Z,6.82
2023-07-31T13:11:10.106Z,5.22
2023-07-31T13:13:36.980Z,5.03
2023-07-31T13:16:04.029Z,7.38
2023-07-31T13:18:30.943Z,5.88
2023-07-31T13:20:57.912Z,5.35
2023-07-31T13:23:24.853Z,5.28
2023-07-31T13:25:51.736Z,5.80
2023-07-31T13:28:18.695Z,5.97
2023-07-31T13:30:45.647Z,5.32
2023-07-31T13:33:24.982Z,6.45
2023-07-31T13:35:56.810Z,4.85
2023-07-31T13:38:23.780Z,4.68
2023-07-31T13:40:50.668Z,4.32
2023-07-31T13:43:17.508Z,4.57
2023-07-31T13:45:44.485Z,5.57
2023-07-31T13:48:11.425Z,6.65
2023-07-31T13:50:38.331Z,6.50
2023-07-31T13:53:05.244Z,5.32
2023-07-31T13:55:32.154Z,4.38
2023-07-31T13:57:59.054Z,5.35
2023-07-31T14:00:25.931Z,7.10
2023-07-31T14:02:52.834Z,5.78
2023-07-31T14:05:19.718Z,6.53
2023-07-31T14:07:46.764Z,6.55
2023-07-31T14:10:13.674Z,5.32
2023-07-31T14:12:43.052Z,7.45
2023-07-31T14:15:12.058Z,5.57
2023-07-31T14:17:39.231Z,5.85
2023-07-31T14:20:07.660Z,5.30
2023-07-31T14:22:35.277Z,6.03
2023-07-31T14:25:03.185Z,6.28
2023-07-31T14:27:30.209Z,6.50
2023-07-31T14:29:57.316Z,5.63
2023-07-31T14:32:26.464Z,5.75
2023-07-31T14:34:53.821Z,9.15
2023-07-31T14:37:20.794Z,6.75
2023-07-31T14:39:47.698Z,6.55
2023-07-31T14:42:14.800Z,5.15
2023-07-31T14:44:41.681Z,6.25
2023-07-31T14:47:08.557Z,6.40
2023-07-31T14:49:35.410Z,6.38
2023-07-31T14:52:02.336Z,7.82
2023-07-31T14:54:29.239Z,6.75
2023-07-31T14:56:56.114Z,5.53
2023-07-31T14:59:23.031Z,5.82
2023-07-31T15:01:49.965Z,5.47
2023-07-31T15:04:16.933Z,7.85
2023-07-31T15:06:43.863Z,8.13
2023-07-31T15:09:10.807Z,4.93
2023-07-31T15:11:37.832Z,6.10
2023-07-31T15:14:04.903Z,6.72
2023-07-31T15:16:32.577Z,8.02
2023-07-31T15:18:59.739Z,15.38
2023-07-31T15:21:26.817Z,8.88
2023-07-31T15:23:54.307Z,7.40
2023-07-31T15:26:21.717Z,5.43
2023-07-31T15:28:56.414Z,5.28
2023-07-31T15:31:23.567Z,5.07
2023-07-31T15:33:50.558Z,5.47
2023-07-31T15:36:18.465Z,5.43
2023-07-31T15:38:45.506Z,5.63
2023-07-31T15:41:12.472Z,4.85
2023-07-31T15:43:39.365Z,4.78
2023-07-31T15:46:06.318Z,6.68
2023-07-31T15:48:33.202Z,5.28
2023-07-31T15:51:00.467Z,5.47
2023-07-31T15:53:27.444Z,3.83
2023-07-31T15:55:54.339Z,4.65
2023-07-31T15:58:21.416Z,5.47
2023-07-31T16:00:48.642Z,4.05
2023-07-31T16:03:16.069Z,3.70
2023-07-31T16:05:43.170Z,6.70
2023-07-31T16:08:10.060Z,4.10
2023-07-31T16:10:37.119Z,5.30
2023-07-31T16:13:04.619Z,5.88
2023-07-31T16:15:31.617Z,3.83
2023-07-31T16:17:58.659Z,4.82
2023-07-31T16:20:25.841Z,4.70
2023-07-31T16:22:53.157Z,3.35
2023-07-31T16:25:20.079Z,4.68
2023-07-31T16:27:47.220Z,5.15
2023-07-31T16:30:14.589Z,3.70
2023-07-31T16:32:41.772Z,4.18
2023-07-31T16:35:09.137Z,3.22
2023-07-31T16:37:37.981Z,4.63
2023-07-31T16:40:05.581Z,3.45
2023-07-31T16:42:32.554Z,4.07
2023-07-31T16:44:59.397Z,3.58
2023-07-31T16:47:26.358Z,3.33
2023-07-31T16:49:53.470Z,4.15
2023-07-31T16:52:20.379Z,3.08
2023-07-31T16:54:48.250Z,3.42
2023-07-31T16:57:15.164Z,3.35
2023-07-31T16:59:42.054Z,3.05
2023-07-31T17:02:09.234Z,3.15
2023-07-31T17:04:36.217Z,3.78
2023-07-31T17:07:03.665Z,2.25
2023-07-31T17:09:30.531Z,2.42
2023-07-31T17:11:57.475Z,2.30
2023-07-31T17:14:24.428Z,9.23
2023-07-31T17:16:51.377Z,4.40
2023-07-31T17:19:18.274Z,2.22
2023-07-31T17:21:45.158Z,2.30
2023-07-31T17:24:12.083Z,2.78
2023-07-31T17:26:38.942Z,1.98
2023-07-31T17:29:06.021Z,2.03
2023-07-31T17:31:35.460Z,2.38
2023-07-31T17:34:02.945Z,4.47
2023-07-31T17:36:29.836Z,1.83
2023-07-31T17:38:56.735Z,2.22
2023-07-31T17:41:25.138Z,3.00
2023-07-31T17:43:52.079Z,2.50
2023-07-31T17:46:18.950Z,1.45
2023-07-31T17:48:46.161Z,1.83
2023-07-31T17:51:13.211Z,3.00
2023-07-31T17:53:40.181Z,1.98
2023-07-31T17:56:07.026Z,1.80
2023-07-31T17:58:33.937Z,2.30
2023-07-31T18:01:00.942Z,2.13
2023-07-31T18:03:28.083Z,3.72
2023-07-31T18:05:55.074Z,1.75
2023-07-31T18:08:22.022Z,3.30
2023-07-31T18:10:49.156Z,2.30
2023-07-31T18:13:16.767Z,1.55
2023-07-31T18:15:48.304Z,1.83
2023-07-31T18:20:42.910Z,2.38
2023-07-31T18:23:10.108Z,1.83
2023-07-31T18:25:37.107Z,2.08
2023-07-31T18:28:04.556Z,1.40
2023-07-31T18:30:31.721Z,2.65
2023-07-31T18:32:58.742Z,1.98
2023-07-31T18:35:25.669Z,1.75
2023-07-31T18:37:52.581Z,1.77
2023-07-31T18:40:19.713Z,1.80
2023-07-31T18:42:47.867Z,1.13
2023-07-31T18:45:14.816Z,1.55
2023-07-31T18:47:41.771Z,2.33
2023-07-31T18:50:09.185Z,1.08
2023-07-31T18:52:36.142Z,1.63
2023-07-31T18:55:03.096Z,1.90
2023-07-31T18:57:29.956Z,1.42
2023-07-31T18:59:56.888Z,2.78
2023-07-31T19:02:23.803Z,1.63
2023-07-31T19:04:50.797Z,1.77
2023-07-31T19:07:17.755Z,1.95
2023-07-31T19:09:44.802Z,1.38
2023-07-31T19:12:12.966Z,2.38
2023-07-31T19:14:39.962Z,2.13
2023-07-31T19:17:07.507Z,1.30
2023-07-31T19:19:34.511Z,1.52
2023-07-31T19:22:01.384Z,1.80
2023-07-31T19:24:34.972Z,2.08
2023-07-31T19:27:04.392Z,4.50
2023-07-31T19:29:31.303Z,1.05
2023-07-31T19:31:58.204Z,1.77
2023-07-31T19:34:26.501Z,1.08
2023-07-31T19:36:53.586Z,1.20
2023-07-31T19:39:21.207Z,1.88
2023-07-31T19:41:48.138Z,2.33
2023-07-31T19:44:15.086Z,1.80
2023-07-31T19:46:42.160Z,2.63
2023-07-31T19:49:09.530Z,1.70
2023-07-31T19:51:36.474Z,1.50
2023-07-31T19:54:03.419Z,1.13
2023-07-31T19:56:30.441Z,1.63
2023-07-31T19:58:57.396Z,1.10
2023-07-31T20:01:26.255Z,1.35
2023-07-31T20:03:54.384Z,1.55
2023-07-31T20:06:21.654Z,2.33
2023-07-31T20:08:48.589Z,3.00
2023-07-31T20:11:15.702Z,1.30
2023-07-31T20:13:42.971Z,3.42
2023-07-31T20:16:10.099Z,1.38
2023-07-31T20:18:39.802Z,1.92
2023-07-31T20:21:06.707Z,1.65
2023-07-31T20:23:43.046Z,2.05
2023-07-31T20:26:11.162Z,2.03
2023-07-31T20:28:38.337Z,1.77
2023-07-31T20:31:05.602Z,1.58
2023-07-31T20:33:32.667Z,2.08
2023-07-31T20:35:59.598Z,2.10
2023-07-31T20:38:26.505Z,1.67
2023-07-31T20:40:53.426Z,2.45
2023-07-31T20:43:20.608Z,1.67
2023-07-31T20:45:47.982Z,2.03
2023-07-31T20:48:15.827Z,1.50
2023-07-31T20:50:43.172Z,1.98
2023-07-31T20:53:10.231Z,1.70
2023-07-31T20:55:39.831Z,1.65
2023-07-31T20:58:08.146Z,1.20
2023-07-31T21:00:35.217Z,1.92
2023-07-31T21:03:05.422Z,2.10
2023-07-31T21:05:32.530Z,1.70
2023-07-31T21:08:00.390Z,2.15
2023-07-31T21:10:27.252Z,1.83
2023-07-31T21:12:54.132Z,1.92
2023-07-31T21:15:21.135Z,1.58
2023-07-31T21:17:48.093Z,1.65
2023-07-31T21:22:57.702Z,1.98
2023-07-31T21:25:24.705Z,1.77
2023-07-31T21:27:51.544Z,2.60
2023-07-31T21:30:18.420Z,1.80
2023-07-31T21:32:45.323Z,2.08
2023-07-31T21:35:12.214Z,3.03
2023-07-31T21:37:39.120Z,2.55
2023-07-31T21:40:06.720Z,2.10
2023-07-31T21:42:33.613Z,2.70
2023-07-31T21:45:00.544Z,2.00
2023-07-31T21:47:27.466Z,1.50
2023-07-31T21:49:54.415Z,1.48
2023-07-31T21:52:21.268Z,2.75
2023-07-31T21:54:48.482Z,3.47
2023-07-31T21:57:15.671Z,2.65
2023-07-31T21:59:42.580Z,2.00
2023-07-31T22:02:09.465Z,3.45
2023-07-31T22:04:36.353Z,2.83
2023-07-31T22:07:03.283Z,2.67
2023-07-31T22:09:30.180Z,2.83
2023-07-31T22:11:57.088Z,2.70
2023-07-31T22:14:24.064Z,2.42
2023-07-31T22:16:50.974Z,4.72
2023-07-31T22:19:17.866Z,3.30
2023-07-31T22:21:44.736Z,2.13
2023-07-31T22:24:11.687Z,2.95
2023-07-31T22:26:38.821Z,2.30
2023-07-31T22:29:06.259Z,2.28
2023-07-31T22:31:33.279Z,2.30
2023-07-31T22:34:00.170Z,2.20
2023-07-31T22:36:27.131Z,2.65
2023-07-31T22:38:54.001Z,2.55
2023-07-31T22:41:21.011Z,4.85
2023-07-31T22:43:47.919Z,2.42
2023-07-31T22:46:14.914Z,2.10
2023-07-31T22:48:41.817Z,2.50
2023-07-31T22:51:08.727Z,3.10
2023-07-31T22:53:35.624Z,2.55
2023-07-31T22:56:07.003Z,3.03
2023-07-31T22:58:34.148Z,1.98
2023-07-31T23:01:09.412Z,1.88
2023-07-31T23:03:36.436Z,2.65
2023-07-31T23:06:04.240Z,4.32
2023-07-31T23:08:31.253Z,2.90
2023-07-31T23:10:58.295Z,1.85
2023-07-31T23:13:25.171Z,2.78
2023-07-31T23:15:52.100Z,2.75
2023-07-31T23:18:19.054Z,3.13
2023-07-31T23:20:54.386Z,2.92
2023-07-31T23:23:21.334Z,2.17
2023-07-31T23:25:51.428Z,2.30
2023-07-31T23:28:19.790Z,1.70
2023-07-31T23:30:48.634Z,3.33
2023-07-31T23:33:15.608Z,2.78
2023-07-31T23:35:42.660Z,3.63
2023-07-31T23:38:09.678Z,1.83
2023-07-31T23:40:36.574Z,2.22
2023-07-31T23:43:03.517Z,2.10
2023-07-31T23:45:30.431Z,2.70
2023-07-31T23:47:57.375Z,2.35
2023-07-31T23:50:24.489Z,2.75
2023-07-31T23:52:51.612Z,2.00
2023-07-31T23:55:19.242Z,2.00
2023-07-31T23:57:46.828Z,2.28
